createdAt,value
2023-04-18T00:00:40.017Z,6.20
2023-04-18T00:01:40.079Z,6.60
2023-04-18T00:02:40.432Z,7.30
2023-04-18T00:03:40.200Z,6.10
2023-04-18T00:04:40.032Z,7.30
2023-04-18T00:05:39.965Z,8.10
2023-04-18T00:06:39.960Z,8.60
2023-04-18T00:07:39.946Z,7.70
2023-04-18T00:08:39.933Z,7.10
2023-04-18T00:09:39.974Z,8.20
2023-04-18T00:10:39.905Z,11.60
2023-04-18T00:11:39.909Z,9.30
2023-04-18T00:12:39.900Z,10.00
2023-04-18T00:13:39.874Z,8.60
2023-04-18T00:14:39.865Z,8.50
2023-04-18T00:15:39.859Z,7.70
2023-04-18T00:16:39.896Z,7.70
2023-04-18T00:17:40.078Z,7.10
2023-04-18T00:18:39.833Z,6.00
2023-04-18T00:19:39.825Z,7.20
2023-04-18T00:20:39.798Z,7.10
2023-04-18T00:21:39.788Z,7.10
2023-04-18T00:22:39.800Z,8.90
2023-04-18T00:23:39.819Z,8.70
2023-04-18T00:24:39.757Z,8.00
2023-04-18T00:25:39.747Z,7.50
2023-04-18T00:26:39.729Z,7.50
2023-04-18T00:27:39.748Z,5.90
2023-04-18T00:28:39.731Z,6.90
2023-04-18T00:29:39.702Z,6.00
2023-04-18T00:30:39.710Z,6.20
2023-04-18T00:31:39.689Z,6.00
2023-04-18T00:32:39.723Z,5.40
2023-04-18T00:33:39.655Z,4.80
2023-04-18T00:34:39.675Z,4.70
2023-04-18T00:35:39.631Z,4.40
2023-04-18T00:36:39.624Z,4.80
2023-04-18T00:37:39.631Z,4.40
2023-04-18T00:38:39.607Z,4.30
2023-04-18T00:39:39.591Z,4.10
2023-04-18T00:40:39.580Z,4.50
2023-04-18T00:41:39.577Z,4.40
2023-04-18T00:42:47.068Z,6.20
2023-04-18T00:43:39.543Z,5.30
2023-04-18T00:44:39.536Z,5.90
2023-04-18T00:45:39.533Z,7.50
2023-04-18T00:46:39.559Z,7.50
2023-04-18T00:47:39.513Z,7.40
2023-04-18T00:48:39.492Z,7.10
2023-04-18T00:49:39.476Z,7.20
2023-04-18T00:50:39.502Z,7.10
2023-04-18T00:51:39.459Z,7.70
2023-04-18T00:52:39.461Z,9.10
2023-04-18T00:53:39.440Z,10.40
2023-04-18T00:54:39.437Z,10.00
2023-04-18T00:55:39.424Z,8.50
2023-04-18T00:56:39.407Z,9.60
2023-04-18T00:57:39.415Z,8.70
2023-04-18T00:58:39.383Z,7.60
2023-04-18T00:59:39.368Z,7.40
2023-04-18T01:00:39.379Z,12.70
2023-04-18T01:01:39.394Z,13.70
2023-04-18T01:02:39.446Z,10.60
2023-04-18T01:03:39.533Z,8.60
2023-04-18T01:04:39.389Z,9.40
2023-04-18T01:05:39.315Z,11.30
2023-04-18T01:06:39.324Z,10.10
2023-04-18T01:07:39.283Z,9.80
2023-04-18T01:08:39.868Z,8.20
2023-04-18T01:09:39.273Z,7.30
2023-04-18T01:10:39.263Z,6.30
2023-04-18T01:11:39.237Z,5.40
2023-04-18T01:12:39.233Z,5.10
2023-04-18T01:13:39.256Z,9.40
2023-04-18T01:14:39.218Z,6.10
2023-04-18T01:15:39.230Z,5.50
2023-04-18T01:16:39.192Z,5.10
2023-04-18T01:17:39.209Z,5.40
2023-04-18T01:18:39.175Z,4.90
2023-04-18T01:19:39.167Z,4.50
2023-04-18T01:20:39.140Z,4.80
2023-04-18T01:21:39.127Z,5.60
2023-04-18T01:22:39.149Z,5.20
2023-04-18T01:23:39.119Z,4.90
2023-04-18T01:24:39.124Z,4.50
2023-04-18T01:25:39.087Z,4.80
2023-04-18T01:26:39.086Z,5.00
2023-04-18T01:27:39.070Z,5.30
2023-04-18T01:28:39.060Z,5.10
2023-04-18T01:29:39.127Z,5.90
2023-04-18T01:30:39.049Z,6.10
2023-04-18T01:31:39.166Z,5.50
2023-04-18T01:32:39.148Z,5.20
2023-04-18T01:33:39.011Z,6.70
2023-04-18T01:34:39.022Z,6.50
2023-04-18T01:35:39.019Z,5.30
2023-04-18T01:36:39.109Z,5.70
2023-04-18T01:37:38.949Z,5.90
2023-04-18T01:38:38.994Z,6.00
2023-04-18T01:39:38.945Z,5.50
2023-04-18T01:40:38.944Z,5.90
2023-04-18T01:41:38.907Z,7.50
2023-04-18T01:42:38.897Z,7.00
2023-04-18T01:43:38.896Z,6.70
2023-04-18T01:44:38.892Z,7.40
2023-04-18T01:45:38.860Z,9.00
2023-04-18T01:46:38.884Z,8.10
2023-04-18T01:47:38.884Z,8.30
2023-04-18T01:48:38.861Z,7.70
2023-04-18T01:49:38.830Z,8.20
2023-04-18T01:50:38.814Z,9.90
2023-04-18T01:51:38.879Z,10.00
2023-04-18T01:52:38.794Z,11.00
2023-04-18T01:53:38.777Z,8.00
2023-04-18T01:54:38.803Z,8.20
2023-04-18T01:55:38.767Z,8.70
2023-04-18T01:56:38.757Z,8.50
2023-04-18T01:57:38.730Z,8.60
2023-04-18T01:58:38.724Z,7.90
2023-04-18T01:59:38.808Z,7.70
2023-04-18T02:00:38.773Z,10.10
2023-04-18T02:01:38.715Z,9.50
2023-04-18T02:02:38.805Z,8.30
2023-04-18T02:03:38.913Z,8.00
2023-04-18T02:04:38.670Z,9.10
2023-04-18T02:05:38.645Z,8.80
2023-04-18T02:06:38.638Z,8.50
2023-04-18T02:07:38.624Z,8.80
2023-04-18T02:08:38.623Z,9.10
2023-04-18T02:09:38.614Z,7.50
2023-04-18T02:10:38.618Z,8.60
2023-04-18T02:11:38.582Z,8.80
2023-04-18T02:12:38.567Z,8.40
2023-04-18T02:13:38.565Z,8.70
2023-04-18T02:14:38.560Z,8.30
2023-04-18T02:15:38.538Z,7.60
2023-04-18T02:16:38.589Z,7.80
2023-04-18T02:17:38.563Z,8.10
2023-04-18T02:18:38.525Z,9.30
2023-04-18T02:19:38.531Z,8.10
2023-04-18T02:20:38.537Z,7.60
2023-04-18T02:21:38.485Z,7.90
2023-04-18T02:22:38.470Z,7.10
2023-04-18T02:23:38.474Z,7.20
2023-04-18T02:24:38.440Z,7.80
2023-04-18T02:25:38.448Z,8.90
2023-04-18T02:26:38.452Z,10.80
2023-04-18T02:27:38.404Z,9.20
2023-04-18T02:28:38.412Z,9.60
2023-04-18T02:29:38.397Z,8.70
2023-04-18T02:30:38.378Z,10.70
2023-04-18T02:31:38.387Z,9.50
2023-04-18T02:32:38.368Z,8.10
2023-04-18T02:33:38.352Z,8.30
2023-04-18T02:34:38.335Z,6.90
2023-04-18T02:35:38.336Z,7.00
2023-04-18T02:36:38.313Z,7.50
2023-04-18T02:37:38.877Z,7.40
2023-04-18T02:38:38.309Z,6.40
2023-04-18T02:39:38.275Z,7.30
2023-04-18T02:40:38.267Z,7.20
2023-04-18T02:41:38.284Z,7.00
2023-04-18T02:42:38.263Z,7.30
2023-04-18T02:43:45.738Z,6.20
2023-04-18T02:44:38.231Z,6.90
2023-04-18T02:45:38.239Z,7.00
2023-04-18T02:46:38.203Z,7.40
2023-04-18T02:47:51.202Z,7.80
2023-04-18T02:48:38.185Z,8.00
2023-04-18T02:49:38.168Z,9.00
2023-04-18T02:50:38.175Z,9.10
2023-04-18T02:51:38.142Z,8.60
2023-04-18T02:52:38.169Z,8.70
2023-04-18T02:53:38.123Z,9.80
2023-04-18T02:54:38.113Z,11.10
2023-04-18T02:55:38.113Z,9.70
2023-04-18T02:56:38.096Z,9.70
2023-04-18T02:57:38.075Z,11.30
2023-04-18T02:58:38.117Z,10.30
2023-04-18T02:59:38.061Z,9.70
2023-04-18T03:00:38.055Z,9.80
2023-04-18T03:01:38.094Z,11.90
2023-04-18T03:02:38.054Z,11.10
2023-04-18T03:03:38.026Z,10.30
2023-04-18T03:04:38.073Z,10.40
2023-04-18T03:05:38.002Z,9.40
2023-04-18T03:06:37.982Z,9.50
2023-04-18T03:07:37.974Z,10.70
2023-04-18T03:08:37.968Z,10.30
2023-04-18T03:09:37.956Z,9.40
2023-04-18T03:10:37.940Z,8.30
2023-04-18T03:11:37.926Z,8.30
2023-04-18T03:12:37.917Z,7.80
2023-04-18T03:13:37.918Z,10.90
2023-04-18T03:14:37.924Z,11.50
2023-04-18T03:15:37.951Z,13.60
2023-04-18T03:16:37.905Z,12.90
2023-04-18T03:17:37.915Z,15.70
2023-04-18T03:18:37.867Z,12.60
2023-04-18T03:19:37.845Z,9.80
2023-04-18T03:20:37.843Z,11.00
2023-04-18T03:21:37.825Z,9.40
2023-04-18T03:22:37.834Z,8.50
2023-04-18T03:23:37.793Z,9.60
2023-04-18T03:24:37.788Z,9.40
2023-04-18T03:25:37.785Z,10.40
2023-04-18T03:26:37.765Z,10.50
2023-04-18T03:27:37.750Z,10.90
2023-04-18T03:28:37.766Z,11.00
2023-04-18T03:29:37.734Z,10.30
2023-04-18T03:30:37.741Z,10.10
2023-04-18T03:31:37.809Z,12.10
2023-04-18T03:32:37.710Z,12.30
2023-04-18T03:33:37.718Z,14.60
2023-04-18T03:34:37.691Z,15.30
2023-04-18T03:35:37.671Z,16.30
2023-04-18T03:36:37.662Z,15.60
2023-04-18T03:37:37.644Z,16.00
2023-04-18T03:38:37.646Z,14.50
2023-04-18T03:39:37.632Z,14.30
2023-04-18T03:40:37.630Z,13.60
2023-04-18T03:41:37.603Z,15.50
2023-04-18T03:42:37.598Z,13.20
2023-04-18T03:43:37.580Z,11.40
2023-04-18T03:44:37.573Z,10.40
2023-04-18T03:45:37.572Z,9.90
2023-04-18T03:46:37.684Z,10.60
2023-04-18T03:47:37.580Z,11.30
2023-04-18T03:48:37.553Z,9.50
2023-04-18T03:49:37.530Z,10.40
2023-04-18T03:50:37.508Z,11.20
2023-04-18T03:51:37.501Z,9.90
2023-04-18T03:52:37.492Z,9.90
2023-04-18T03:53:37.471Z,10.30
2023-04-18T03:54:37.473Z,11.40
2023-04-18T03:55:37.453Z,11.00
2023-04-18T03:56:37.445Z,9.20
2023-04-18T03:57:37.442Z,8.10
2023-04-18T03:58:37.422Z,8.20
2023-04-18T03:59:37.421Z,8.10
2023-04-18T04:00:37.431Z,8.10
2023-04-18T04:01:37.410Z,7.30
2023-04-18T04:02:37.544Z,7.90
2023-04-18T04:03:37.655Z,8.30
2023-04-18T04:04:37.429Z,7.80
2023-04-18T04:05:37.345Z,8.00
2023-04-18T04:06:37.439Z,8.00
2023-04-18T04:07:37.323Z,9.20
2023-04-18T04:08:37.313Z,9.50
2023-04-18T04:09:37.323Z,10.40
2023-04-18T04:10:37.295Z,11.90
2023-04-18T04:11:37.288Z,11.80
2023-04-18T04:12:37.272Z,17.80
2023-04-18T04:13:37.264Z,14.60
2023-04-18T04:14:37.269Z,16.00
2023-04-18T04:15:37.237Z,15.70
2023-04-18T04:16:37.259Z,15.10
2023-04-18T04:17:37.235Z,12.80
2023-04-18T04:18:37.243Z,12.00
2023-04-18T04:19:37.200Z,10.50
2023-04-18T04:20:37.189Z,10.90
2023-04-18T04:21:37.197Z,12.90
2023-04-18T04:22:37.177Z,12.90
2023-04-18T04:23:37.150Z,14.70
2023-04-18T04:24:37.141Z,12.90
2023-04-18T04:25:37.130Z,11.50
2023-04-18T04:26:37.139Z,10.70
2023-04-18T04:27:37.115Z,11.40
2023-04-18T04:28:37.111Z,12.70
2023-04-18T04:29:37.092Z,12.90
2023-04-18T04:30:37.087Z,11.80
2023-04-18T04:31:37.150Z,11.10
2023-04-18T04:32:37.069Z,11.20
2023-04-18T04:33:37.055Z,9.80
2023-04-18T04:34:37.055Z,9.80
2023-04-18T04:35:37.024Z,9.30
2023-04-18T04:36:37.021Z,9.90
2023-04-18T04:37:36.996Z,9.70
2023-04-18T04:38:36.996Z,9.60
2023-04-18T04:39:36.976Z,9.90
2023-04-18T04:40:36.978Z,9.80
2023-04-18T04:41:36.950Z,9.80
2023-04-18T04:42:36.960Z,10.20
2023-04-18T04:43:36.930Z,11.80
2023-04-18T04:44:44.472Z,10.90
2023-04-18T04:45:36.942Z,11.00
2023-04-18T04:46:36.908Z,12.40
2023-04-18T04:47:36.905Z,11.10
2023-04-18T04:48:36.872Z,11.80
2023-04-18T04:49:36.869Z,13.10
2023-04-18T04:50:36.883Z,14.20
2023-04-18T04:51:36.851Z,14.90
2023-04-18T04:52:36.840Z,18.00
2023-04-18T04:53:36.833Z,16.80
2023-04-18T04:54:36.817Z,15.10
2023-04-18T04:55:36.800Z,16.00
2023-04-18T04:56:36.789Z,16.20
2023-04-18T04:57:36.792Z,14.90
2023-04-18T04:58:36.766Z,14.50
2023-04-18T04:59:36.755Z,14.00
2023-04-18T05:00:36.743Z,14.80
2023-04-18T05:01:36.773Z,14.10
2023-04-18T05:02:36.948Z,13.40
2023-04-18T05:03:36.965Z,13.70
2023-04-18T05:04:36.811Z,11.70
2023-04-18T05:05:36.691Z,12.10
2023-04-18T05:06:38.363Z,11.50
2023-04-18T05:07:36.672Z,12.20
2023-04-18T05:08:36.683Z,12.70
2023-04-18T05:09:36.652Z,12.20
2023-04-18T05:10:36.644Z,11.90
2023-04-18T05:11:36.660Z,12.10
2023-04-18T05:12:36.611Z,11.80
2023-04-18T05:13:36.610Z,12.30
2023-04-18T05:14:36.589Z,12.90
2023-04-18T05:15:36.588Z,11.80
2023-04-18T05:16:36.603Z,11.70
2023-04-18T05:17:36.601Z,15.90
2023-04-18T05:18:36.581Z,17.10
2023-04-18T05:19:36.541Z,16.50
2023-04-18T05:20:36.535Z,21.90
2023-04-18T05:21:36.546Z,22.70
2023-04-18T05:22:36.526Z,18.90
2023-04-18T05:23:36.499Z,18.50
2023-04-18T05:24:36.482Z,17.50
2023-04-18T05:25:36.517Z,15.80
2023-04-18T05:26:36.481Z,14.30
2023-04-18T05:27:36.452Z,13.10
2023-04-18T05:28:36.449Z,15.10
2023-04-18T05:29:36.439Z,15.40
2023-04-18T05:30:36.453Z,15.20
2023-04-18T05:31:36.584Z,14.90
2023-04-18T05:32:36.407Z,13.20
2023-04-18T05:33:36.386Z,13.70
2023-04-18T05:34:38.014Z,16.00
2023-04-18T05:35:36.389Z,12.70
2023-04-18T05:36:36.362Z,12.30
2023-04-18T05:37:36.362Z,20.50
2023-04-18T05:38:36.356Z,16.80
2023-04-18T05:39:36.336Z,12.60
2023-04-18T05:40:36.311Z,11.40
2023-04-18T05:41:36.312Z,12.00
2023-04-18T05:42:36.324Z,11.30
2023-04-18T05:43:36.297Z,11.00
2023-04-18T05:44:36.267Z,11.60
2023-04-18T05:45:36.300Z,12.20
2023-04-18T05:46:36.294Z,11.50
2023-04-18T05:47:36.297Z,11.20
2023-04-18T05:48:36.225Z,11.10
2023-04-18T05:49:36.228Z,11.60
2023-04-18T05:50:36.258Z,10.20
2023-04-18T05:51:36.197Z,10.30
2023-04-18T05:52:36.206Z,11.30
2023-04-18T05:53:36.180Z,12.90
2023-04-18T05:54:36.234Z,12.50
2023-04-18T05:55:36.175Z,11.10
2023-04-18T05:56:36.148Z,12.40
2023-04-18T05:57:36.203Z,11.20
2023-04-18T05:58:36.135Z,12.10
2023-04-18T05:59:36.131Z,10.80
2023-04-18T06:00:36.104Z,11.70
2023-04-18T06:01:36.094Z,10.60
2023-04-18T06:02:36.197Z,11.00
2023-04-18T06:03:36.378Z,11.20
2023-04-18T06:04:36.169Z,12.00
2023-04-18T06:05:36.276Z,12.50
2023-04-18T06:06:36.060Z,17.30
2023-04-18T06:07:36.062Z,15.00
2023-04-18T06:08:36.013Z,14.90
2023-04-18T06:09:37.117Z,13.70
2023-04-18T06:10:38.423Z,15.40
2023-04-18T06:11:35.994Z,16.80
2023-04-18T06:12:35.985Z,15.30
2023-04-18T06:13:35.957Z,15.60
2023-04-18T06:14:35.946Z,16.50
2023-04-18T06:15:35.945Z,20.50
2023-04-18T06:16:35.944Z,19.40
2023-04-18T06:17:36.001Z,17.40
2023-04-18T06:18:35.966Z,17.80
2023-04-18T06:19:35.908Z,16.10
2023-04-18T06:20:35.877Z,11.70
2023-04-18T06:21:35.892Z,12.70
2023-04-18T06:22:35.856Z,12.90
2023-04-18T06:23:35.859Z,15.20
2023-04-18T06:24:35.831Z,14.90
2023-04-18T06:25:35.827Z,14.20
2023-04-18T06:26:35.827Z,11.60
2023-04-18T06:27:35.811Z,14.10
2023-04-18T06:28:35.824Z,17.70
2023-04-18T06:29:36.847Z,14.00
2023-04-18T06:30:35.766Z,16.90
2023-04-18T06:31:35.804Z,15.60
2023-04-18T06:32:35.835Z,20.60
2023-04-18T06:33:35.742Z,17.20
2023-04-18T06:34:35.725Z,16.70
2023-04-18T06:35:35.714Z,20.20
2023-04-18T06:36:35.714Z,18.50
2023-04-18T06:37:35.698Z,18.10
2023-04-18T06:38:35.716Z,16.20
2023-04-18T06:39:35.710Z,16.90
2023-04-18T06:40:35.708Z,14.20
2023-04-18T06:41:36.497Z,14.60
2023-04-18T06:42:35.817Z,15.60
2023-04-18T06:43:35.656Z,18.00
2023-04-18T06:44:35.695Z,14.80
2023-04-18T06:45:42.688Z,14.40
2023-04-18T06:46:35.664Z,13.60
2023-04-18T06:47:35.634Z,19.90
2023-04-18T06:48:35.574Z,18.20
2023-04-18T06:49:35.596Z,21.80
2023-04-18T06:50:35.559Z,22.60
2023-04-18T06:51:35.565Z,26.80
2023-04-18T06:52:35.532Z,24.40
2023-04-18T06:53:35.516Z,18.70
2023-04-18T06:54:35.507Z,16.90
2023-04-18T06:55:35.495Z,13.80
2023-04-18T06:56:36.593Z,13.70
2023-04-18T06:57:35.497Z,13.90
2023-04-18T06:58:35.551Z,16.50
2023-04-18T06:59:35.454Z,13.20
2023-04-18T07:00:35.440Z,12.60
2023-04-18T07:01:35.522Z,14.70
2023-04-18T07:02:35.568Z,19.10
2023-04-18T07:03:35.566Z,14.40
2023-04-18T07:04:35.494Z,16.70
2023-04-18T07:05:35.389Z,14.90
2023-04-18T07:06:35.375Z,14.10
2023-04-18T07:07:35.393Z,12.70
2023-04-18T07:08:35.357Z,14.10
2023-04-18T07:09:35.380Z,16.70
2023-04-18T07:10:35.330Z,15.70
2023-04-18T07:11:35.337Z,20.50
2023-04-18T07:12:35.408Z,17.60
2023-04-18T07:13:35.321Z,15.00
2023-04-18T07:14:36.146Z,17.30
2023-04-18T07:15:35.302Z,20.10
2023-04-18T07:16:35.296Z,19.70
2023-04-18T07:17:35.315Z,18.80
2023-04-18T07:18:38.279Z,19.20
2023-04-18T07:19:35.235Z,17.10
2023-04-18T07:20:35.245Z,14.20
2023-04-18T07:21:35.225Z,17.40
2023-04-18T07:22:35.201Z,15.30
2023-04-18T07:23:35.218Z,14.40
2023-04-18T07:24:35.240Z,14.30
2023-04-18T07:25:35.171Z,16.20
2023-04-18T07:26:35.153Z,17.60
2023-04-18T07:27:35.243Z,16.30
2023-04-18T07:28:35.154Z,15.30
2023-04-18T07:29:35.141Z,16.10
2023-04-18T07:30:35.334Z,13.70
2023-04-18T07:31:35.150Z,14.00
2023-04-18T07:32:35.161Z,12.80
2023-04-18T07:33:35.089Z,13.20
2023-04-18T07:34:35.078Z,13.50
2023-04-18T07:35:35.084Z,14.10
2023-04-18T07:36:35.070Z,13.20
2023-04-18T07:37:35.061Z,12.90
2023-04-18T07:38:35.051Z,13.10
2023-04-18T07:39:35.028Z,13.40
2023-04-18T07:40:35.026Z,12.60
2023-04-18T07:41:35.000Z,12.00
2023-04-18T07:42:34.990Z,12.40
2023-04-18T07:43:34.973Z,12.50
2023-04-18T07:44:34.967Z,12.30
2023-04-18T07:45:34.978Z,12.50
2023-04-18T07:46:34.994Z,12.60
2023-04-18T07:47:34.990Z,12.60
2023-04-18T07:48:35.168Z,12.60
2023-04-18T07:49:34.905Z,14.60
2023-04-18T07:50:34.906Z,12.00
2023-04-18T07:51:34.947Z,12.30
2023-04-18T07:52:34.892Z,12.90
2023-04-18T07:53:34.863Z,12.60
2023-04-18T07:54:34.853Z,12.50
2023-04-18T07:55:34.876Z,12.70
2023-04-18T07:56:34.849Z,12.80
2023-04-18T07:57:34.823Z,13.00
2023-04-18T07:58:34.814Z,12.60
2023-04-18T07:59:34.827Z,13.10
2023-04-18T08:00:35.312Z,14.80
2023-04-18T08:01:34.838Z,13.10
2023-04-18T08:02:34.949Z,13.20
2023-04-18T08:03:34.851Z,13.30
2023-04-18T08:04:34.935Z,12.60
2023-04-18T08:05:35.039Z,13.50
2023-04-18T08:06:35.214Z,12.30
2023-04-18T08:07:34.736Z,12.30
2023-04-18T08:08:34.698Z,13.10
2023-04-18T08:09:34.703Z,12.30
2023-04-18T08:10:34.712Z,12.60
2023-04-18T08:11:34.679Z,12.10
2023-04-18T08:12:34.658Z,12.40
2023-04-18T08:13:34.646Z,12.20
2023-04-18T08:14:34.647Z,13.10
2023-04-18T08:15:34.634Z,12.20
2023-04-18T08:16:34.657Z,12.80
2023-04-18T08:17:34.653Z,12.50
2023-04-18T08:18:34.620Z,14.50
2023-04-18T08:19:34.610Z,13.20
2023-04-18T08:20:34.680Z,13.40
2023-04-18T08:21:34.561Z,11.50
2023-04-18T08:22:34.549Z,13.10
2023-04-18T08:23:34.548Z,13.00
2023-04-18T08:24:34.526Z,12.30
2023-04-18T08:25:34.523Z,13.00
2023-04-18T08:26:34.567Z,12.40
2023-04-18T08:27:34.506Z,13.10
2023-04-18T08:28:34.493Z,14.20
2023-04-18T08:29:34.480Z,13.90
2023-04-18T08:30:34.988Z,16.20
2023-04-18T08:31:34.479Z,14.50
2023-04-18T08:32:34.476Z,13.70
2023-04-18T08:33:34.677Z,13.40
2023-04-18T08:34:34.466Z,13.60
2023-04-18T08:35:34.408Z,13.50
2023-04-18T08:36:34.413Z,13.40
2023-04-18T08:37:34.398Z,11.90
2023-04-18T08:38:34.552Z,13.10
2023-04-18T08:39:34.376Z,14.90
2023-04-18T08:40:34.355Z,16.50
2023-04-18T08:41:34.425Z,15.20
2023-04-18T08:42:34.377Z,15.10
2023-04-18T08:43:34.337Z,17.70
2023-04-18T08:44:34.332Z,16.80
2023-04-18T08:45:34.508Z,21.60
2023-04-18T08:46:41.810Z,15.80
2023-04-18T08:47:34.371Z,15.00
2023-04-18T08:48:34.368Z,14.00
2023-04-18T08:49:34.255Z,14.80
2023-04-18T08:50:34.258Z,14.50
2023-04-18T08:51:34.246Z,14.90
2023-04-18T08:52:34.265Z,14.60
2023-04-18T08:53:34.226Z,14.40
2023-04-18T08:54:34.192Z,13.60
2023-04-18T08:55:34.188Z,13.50
2023-04-18T08:56:34.184Z,14.00
2023-04-18T08:57:34.171Z,19.60
2023-04-18T08:58:34.194Z,22.10
2023-04-18T08:59:34.145Z,17.60
2023-04-18T09:00:34.141Z,15.60
2023-04-18T09:01:34.131Z,14.10
2023-04-18T09:02:34.247Z,14.90
2023-04-18T09:03:34.169Z,14.20
2023-04-18T09:04:34.274Z,14.20
2023-04-18T09:05:34.114Z,14.30
2023-04-18T09:06:34.084Z,12.70
2023-04-18T09:07:34.065Z,12.10
2023-04-18T09:08:34.042Z,11.90
2023-04-18T09:09:34.029Z,13.10
2023-04-18T09:10:34.028Z,11.50
2023-04-18T09:11:34.045Z,14.50
2023-04-18T09:12:33.994Z,14.20
2023-04-18T09:13:33.990Z,13.80
2023-04-18T09:14:33.985Z,14.60
2023-04-18T09:15:33.960Z,12.80
2023-04-18T09:16:34.177Z,12.60
2023-04-18T09:17:34.053Z,12.40
2023-04-18T09:18:33.944Z,12.50
2023-04-18T09:19:33.936Z,12.00
2023-04-18T09:20:33.933Z,14.10
2023-04-18T09:21:33.906Z,13.30
2023-04-18T09:22:33.986Z,16.10
2023-04-18T09:23:33.961Z,15.70
2023-04-18T09:24:33.866Z,14.60
2023-04-18T09:25:33.900Z,12.90
2023-04-18T09:26:34.540Z,13.10
2023-04-18T09:27:33.928Z,12.80
2023-04-18T09:28:33.873Z,13.20
2023-04-18T09:29:33.822Z,13.10
2023-04-18T09:30:33.853Z,12.40
2023-04-18T09:31:33.825Z,12.80
2023-04-18T09:32:33.862Z,12.10
2023-04-18T09:33:33.787Z,13.20
2023-04-18T09:34:34.080Z,14.30
2023-04-18T09:35:33.741Z,13.90
2023-04-18T09:36:33.783Z,15.00
2023-04-18T09:37:34.089Z,16.90
2023-04-18T09:38:33.862Z,13.90
2023-04-18T09:39:33.729Z,13.00
2023-04-18T09:40:33.692Z,13.60
2023-04-18T09:41:33.686Z,13.80
2023-04-18T09:42:33.690Z,14.30
2023-04-18T09:43:33.655Z,12.90
2023-04-18T09:44:33.647Z,12.90
2023-04-18T09:45:33.711Z,12.70
2023-04-18T09:46:33.656Z,12.00
2023-04-18T09:47:33.656Z,11.90
2023-04-18T09:48:33.613Z,11.30
2023-04-18T09:49:33.763Z,11.40
2023-04-18T09:50:33.588Z,12.30
2023-04-18T09:51:33.586Z,11.60
2023-04-18T09:52:33.590Z,12.00
2023-04-18T09:53:33.545Z,11.20
2023-04-18T09:54:33.577Z,12.30
2023-04-18T09:55:33.558Z,11.80
2023-04-18T09:56:33.523Z,12.90
2023-04-18T09:57:33.532Z,12.30
2023-04-18T09:58:33.496Z,12.20
2023-04-18T09:59:33.532Z,11.70
2023-04-18T10:00:33.492Z,11.60
2023-04-18T10:01:33.515Z,12.70
2023-04-18T10:02:33.521Z,11.60
2023-04-18T10:03:33.711Z,11.40
2023-04-18T10:04:33.504Z,11.30
2023-04-18T10:05:33.512Z,11.20
2023-04-18T10:06:33.438Z,11.90
2023-04-18T10:07:33.390Z,11.20
2023-04-18T10:08:33.387Z,11.10
2023-04-18T10:09:33.361Z,11.80
2023-04-18T10:10:33.523Z,12.00
2023-04-18T10:11:33.367Z,11.80
2023-04-18T10:12:33.346Z,13.10
2023-04-18T10:13:33.356Z,12.10
2023-04-18T10:14:33.349Z,12.90
2023-04-18T10:15:33.317Z,13.20
2023-04-18T10:16:34.954Z,12.30
2023-04-18T10:17:33.296Z,12.20
2023-04-18T10:18:33.321Z,11.80
2023-04-18T10:19:33.267Z,11.40
2023-04-18T10:20:33.280Z,11.80
2023-04-18T10:21:33.233Z,12.20
2023-04-18T10:22:33.223Z,12.60
2023-04-18T10:23:33.317Z,12.70
2023-04-18T10:24:33.215Z,12.60
2023-04-18T10:25:33.205Z,12.20
2023-04-18T10:26:33.206Z,11.30
2023-04-18T10:27:33.183Z,12.00
2023-04-18T10:28:33.162Z,11.70
2023-04-18T10:29:33.161Z,11.60
2023-04-18T10:30:33.145Z,11.30
2023-04-18T10:31:33.188Z,12.10
2023-04-18T10:32:33.159Z,11.90
2023-04-18T10:33:33.726Z,12.00
2023-04-18T10:34:33.110Z,11.20
2023-04-18T10:35:33.091Z,12.30
2023-04-18T10:36:33.189Z,12.00
2023-04-18T10:37:33.061Z,12.40
2023-04-18T10:38:33.072Z,12.40
2023-04-18T10:39:33.056Z,11.10
2023-04-18T10:40:33.038Z,11.70
2023-04-18T10:41:33.071Z,11.40
2023-04-18T10:42:33.127Z,11.40
2023-04-18T10:43:33.010Z,10.70
2023-04-18T10:44:32.992Z,11.90
2023-04-18T10:45:32.981Z,11.40
2023-04-18T10:46:33.114Z,11.40
2023-04-18T10:47:40.633Z,11.50
2023-04-18T10:48:32.951Z,11.90
2023-04-18T10:49:33.100Z,11.30
2023-04-18T10:50:32.940Z,11.10
2023-04-18T10:51:32.910Z,11.90
2023-04-18T10:52:32.916Z,10.50
2023-04-18T10:53:32.885Z,11.20
2023-04-18T10:54:32.892Z,11.40
2023-04-18T10:55:32.868Z,10.90
2023-04-18T10:56:32.859Z,10.90
2023-04-18T10:57:32.866Z,10.80
2023-04-18T10:58:32.872Z,10.50
2023-04-18T10:59:32.891Z,10.60
2023-04-18T11:00:32.826Z,10.80
2023-04-18T11:01:33.320Z,10.60
2023-04-18T11:02:33.073Z,10.50
2023-04-18T11:03:32.866Z,10.60
2023-04-18T11:04:32.801Z,10.10
2023-04-18T11:05:32.784Z,10.80
2023-04-18T11:06:32.750Z,10.50
2023-04-18T11:07:33.579Z,10.30
2023-04-18T11:08:32.729Z,10.60
2023-04-18T11:09:32.745Z,10.80
2023-04-18T11:10:32.703Z,10.00
2023-04-18T11:11:32.707Z,11.00
2023-04-18T11:12:32.704Z,10.10
2023-04-18T11:13:32.685Z,10.00
2023-04-18T11:14:32.713Z,10.20
2023-04-18T11:15:32.667Z,9.20
2023-04-18T11:16:32.759Z,10.50
2023-04-18T11:17:32.712Z,10.60
2023-04-18T11:18:32.616Z,10.20
2023-04-18T11:19:32.614Z,10.40
2023-04-18T11:20:32.634Z,9.70
2023-04-18T11:21:32.628Z,10.20
2023-04-18T11:22:32.587Z,10.00
2023-04-18T11:23:32.575Z,9.10
2023-04-18T11:24:32.552Z,9.60
2023-04-18T11:25:32.543Z,9.60
2023-04-18T11:26:32.573Z,9.50
2023-04-18T11:27:32.516Z,10.10
2023-04-18T11:28:32.510Z,10.50
2023-04-18T11:29:32.498Z,10.00
2023-04-18T11:30:32.619Z,10.00
2023-04-18T11:31:32.502Z,9.80
2023-04-18T11:32:32.535Z,9.70
2023-04-18T11:33:32.493Z,10.50
2023-04-18T11:34:32.492Z,10.00
2023-04-18T11:35:32.453Z,9.80
2023-04-18T11:36:32.417Z,9.90
2023-04-18T11:37:32.417Z,9.10
2023-04-18T11:38:32.409Z,9.70
2023-04-18T11:39:32.390Z,9.80
2023-04-18T11:40:32.405Z,9.40
2023-04-18T11:41:32.359Z,9.30
2023-04-18T11:42:32.370Z,9.70
2023-04-18T11:43:32.337Z,9.10
2023-04-18T11:44:34.338Z,8.80
2023-04-18T11:45:32.314Z,9.50
2023-04-18T11:46:32.548Z,9.50
2023-04-18T11:47:32.327Z,9.70
2023-04-18T11:48:32.304Z,9.70
2023-04-18T11:49:32.278Z,9.30
2023-04-18T11:50:32.288Z,9.30
2023-04-18T11:51:32.262Z,9.60
2023-04-18T11:52:32.243Z,9.30
2023-04-18T11:53:32.238Z,9.60
2023-04-18T11:54:32.219Z,9.90
2023-04-18T11:55:32.216Z,9.10
2023-04-18T11:56:33.508Z,9.80
2023-04-18T11:57:32.182Z,9.80
2023-04-18T11:58:32.180Z,9.80
2023-04-18T11:59:32.162Z,9.10
2023-04-18T12:00:32.175Z,8.80
2023-04-18T12:01:32.138Z,9.60
2023-04-18T12:02:32.479Z,10.40
2023-04-18T12:03:32.306Z,10.70
2023-04-18T12:04:32.247Z,10.00
2023-04-18T12:05:32.346Z,10.60
2023-04-18T12:06:32.267Z,9.90
2023-04-18T12:07:32.080Z,10.60
2023-04-18T12:08:32.122Z,11.80
2023-04-18T12:09:32.076Z,11.00
2023-04-18T12:10:32.050Z,10.90
2023-04-18T12:11:32.061Z,9.20
2023-04-18T12:12:32.028Z,10.10
2023-04-18T12:13:32.041Z,9.70
2023-04-18T12:14:32.011Z,9.50
2023-04-18T12:15:32.016Z,9.30
2023-04-18T12:16:32.056Z,9.10
2023-04-18T12:17:31.988Z,11.00
2023-04-18T12:18:31.984Z,10.70
2023-04-18T12:19:31.956Z,10.70
2023-04-18T12:20:31.951Z,11.00
2023-04-18T12:21:31.932Z,11.60
2023-04-18T12:22:31.916Z,10.00
2023-04-18T12:23:31.938Z,9.30
2023-04-18T12:24:31.909Z,9.00
2023-04-18T12:25:31.916Z,9.70
2023-04-18T12:26:31.872Z,10.20
2023-04-18T12:27:31.855Z,10.10
2023-04-18T12:28:31.859Z,9.90
2023-04-18T12:29:31.851Z,10.10
2023-04-18T12:30:31.844Z,10.30
2023-04-18T12:31:31.861Z,9.30
2023-04-18T12:32:31.845Z,10.10
2023-04-18T12:33:31.853Z,9.30
2023-04-18T12:34:31.810Z,10.90
2023-04-18T12:35:31.788Z,11.50
2023-04-18T12:36:31.772Z,11.40
2023-04-18T12:37:31.740Z,13.60
2023-04-18T12:38:31.735Z,13.00
2023-04-18T12:39:31.721Z,12.00
2023-04-18T12:40:31.743Z,10.50
2023-04-18T12:41:31.701Z,14.50
2023-04-18T12:42:31.691Z,11.90
2023-04-18T12:43:31.686Z,11.30
2023-04-18T12:44:31.664Z,11.80
2023-04-18T12:45:31.670Z,14.50
2023-04-18T12:46:31.687Z,12.30
2023-04-18T12:47:31.707Z,12.00
2023-04-18T12:48:39.138Z,10.20
2023-04-18T12:49:31.608Z,9.40
2023-04-18T12:50:31.623Z,9.00
2023-04-18T12:51:31.709Z,8.90
2023-04-18T12:52:31.594Z,8.80
2023-04-18T12:53:31.582Z,8.90
2023-04-18T12:54:31.562Z,8.80
2023-04-18T12:55:31.549Z,8.70
2023-04-18T12:56:31.541Z,8.70
2023-04-18T12:57:31.954Z,8.90
2023-04-18T12:58:31.529Z,8.70
2023-04-18T12:59:31.513Z,9.00
2023-04-18T13:00:31.555Z,9.20
2023-04-18T13:01:31.516Z,8.50